Atlanticbeach, North Carolina
Current Conditions -  °F | °C
As of 7:58 AM on Friday 24 Oct 2014 (Local Time) from KMRH Reporting Station
Clear Clear  
Wind Chill: 54°   Ceiling: Unl
Heat Index: 54°   Visibility: 10mi
Dew Point: 47°   Wind: 7mph
Humidity: 77%   Direction: 350°N
Pressure: 30.01"   Gusts: NA
Location:  34.6984°N, 76.7775°W
Report Text: KMRH 241158Z AUTO 35006KT 10SM CLR 12/08 A3001 RMK AO2 SLP161 T01220083 10128 20111 53012 TSNO
Loading
Personal Weather Stations






























Interactive Weather Map New forecast layout! Learn more

10-Day Weather Forecast

Advertisements
Track Severe Weather on mobile